CCP2 weather

Public forecast

Using degrees Celsius for public forecast. Weather courtesy of forecast.io.

Closest aviation weather report (METAR) to Exploits Valley Botwood Airport

Closest report is Gander International Airport, 35.4 nm (65.5 km) ESE. Retrieved 2020/08/15 13:00 UTC (57 minutes ago):

CYQX 151300Z 35003G15KT 310V040 20SM FEW030 FEW260 15/06 A3024 RMK CF1CI1 CF TR CI TR SLP246

Closest aviation forecast (TAF) to Exploits Valley Botwood Airport

Closest forecast is Gander International Airport, 35.4 nm (65.5 km) ESE. Retrieved 2020/08/15 12:38 UTC (1 hour ago):

TAF CYQX 151138Z 1512/1612 35007KT P6SM SKC BECMG 1522/1524 20007KT RMK NXT FCST BY 151800Z